Time;durP1;ratioP1;P1;durP2;ratioP2;P2;SDS_P1;SDS_P2;PMS_P1;PMS_P2;Temp;Humidity;BMP_temperature;BMP_pressure;BME280_temperature;BME280_humidity;BME280_pressure;Samples;Min_cycle;Max_cycle;Signal;HPM_P1;HPM_P2
2022/12/18 00:00:57;;;;;;;9.18;6.47;;;;;;;20.19;29.36;102841.84;5078508;28;20067;-64
2022/12/18 00:03:23;;;;;;;8.30;5.97;;;;;;;20.19;29.17;102847.13;5079135;28;20126;-64
2022/12/18 00:05:52;;;;;;;9.00;6.10;;;;;;;20.12;29.57;102853.94;5075288;28;20400;-64
2022/12/18 00:08:19;;;;;;;7.80;5.90;;;;;;;20.02;29.56;102841.63;5073666;28;20044;-64
2022/12/18 00:10:45;;;;;;;7.80;5.72;;;;;;;20.16;29.37;102844.75;5072096;28;20110;-64
2022/12/18 00:13:11;;;;;;;9.07;6.40;;;;;;;20.04;29.56;102837.03;5072627;28;20077;-64
2022/12/18 00:15:38;;;;;;;8.88;6.32;;;;;;;19.96;29.60;102834.22;5074013;28;20144;-64
2022/12/18 00:18:05;;;;;;;8.98;6.47;;;;;;;20.01;29.66;102839.94;5076956;28;20434;-64
2022/12/18 00:20:35;;;;;;;9.32;6.65;;;;;;;19.98;29.65;102841.06;5070495;28;20040;-64
2022/12/18 00:23:01;;;;;;;8.55;7.05;;;;;;;19.96;29.68;102835.06;5075565;28;20036;-64
2022/12/18 00:25:26;;;;;;;9.15;7.07;;;;;;;19.92;29.70;102833.63;5070175;28;20047;-64
2022/12/18 00:27:52;;;;;;;8.55;6.72;;;;;;;19.99;29.47;102834.81;5078130;28;20044;-64
2022/12/18 00:30:17;;;;;;;8.63;6.80;;;;;;;20.01;29.55;102842.59;5071719;28;20040;-64
2022/12/18 00:32:43;;;;;;;9.85;6.78;;;;;;;19.96;29.60;102843.00;5074434;28;20031;-64
2022/12/18 00:35:08;;;;;;;9.05;5.97;;;;;;;19.92;29.66;102837.13;5075796;28;20036;-64
2022/12/18 00:37:34;;;;;;;7.55;6.28;;;;;;;19.92;29.69;102831.81;5072372;28;20541;-64
2022/12/18 00:40:00;;;;;;;8.55;6.18;;;;;;;19.88;29.63;102838.34;5072065;28;20075;-64
2022/12/18 00:45:11;;;;;;;8.88;6.97;;;;;;;19.81;29.66;102823.16;5077712;28;20178;-63
2022/12/18 00:47:37;;;;;;;10.23;6.82;;;;;;;19.94;29.60;102844.09;5079303;28;20028;-65
2022/12/18 00:50:03;;;;;;;8.27;6.47;;;;;;;19.96;29.51;102839.53;5072584;28;20024;-64
2022/12/18 00:52:28;;;;;;;8.68;5.95;;;;;;;19.92;29.58;102838.91;5073439;28;20116;-64
2022/12/18 00:54:54;;;;;;;9.40;6.82;;;;;;;19.89;29.69;102841.84;5076840;28;20044;-64
2022/12/18 00:57:19;;;;;;;9.07;6.28;;;;;;;19.80;29.80;102842.63;5069705;28;20634;-64
2022/12/18 00:59:45;;;;;;;8.27;5.88;;;;;;;19.92;29.62;102850.34;5073559;28;20039;-64
2022/12/18 01:02:13;;;;;;;8.02;6.25;;;;;;;19.85;29.57;102857.13;5066633;28;20397;-64
2022/12/18 01:04:39;;;;;;;10.18;7.22;;;;;;;19.79;29.74;102843.59;5068832;28;20425;-64
2022/12/18 01:07:04;;;;;;;9.25;6.50;;;;;;;19.86;29.63;102839.47;5071725;28;20051;-63
2022/12/18 01:09:30;;;;;;;9.60;6.57;;;;;;;19.86;29.69;102844.75;5070603;28;20491;-64
2022/12/18 01:11:55;;;;;;;9.00;7.30;;;;;;;19.81;29.64;102831.09;5077290;28;20415;-64
2022/12/18 01:14:21;;;;;;;9.20;6.90;;;;;;;19.73;29.83;102836.19;5068817;28;20039;-64
2022/12/18 01:16:47;;;;;;;10.95;6.75;;;;;;;19.77;29.54;102837.63;5073248;28;20056;-64
2022/12/18 01:19:12;;;;;;;9.68;6.70;;;;;;;19.83;29.69;102848.50;5072247;28;20039;-64
2022/12/18 01:21:38;;;;;;;9.88;6.43;;;;;;;19.75;29.71;102844.81;5076632;28;20490;-64
2022/12/18 01:24:04;;;;;;;9.13;6.88;;;;;;;19.80;29.60;102856.69;5074045;28;20051;-64
2022/12/18 01:26:30;;;;;;;9.20;6.35;;;;;;;19.81;29.59;102860.19;5071902;28;20052;-66
2022/12/18 01:28:56;;;;;;;9.07;6.43;;;;;;;19.75;29.85;102855.38;5053114;28;20040;-64
2022/12/18 01:31:28;;;;;;;9.77;6.55;;;;;;;19.74;29.70;102866.94;5072753;28;20032;-63
2022/12/18 01:33:54;;;;;;;9.07;6.60;;;;;;;19.76;29.66;102871.16;5071510;28;20031;-64
2022/12/18 01:36:23;;;;;;;8.52;6.30;;;;;;;19.76;29.63;102870.31;5072237;28;20063;-64
2022/12/18 01:38:49;;;;;;;8.05;6.30;;;;;;;19.71;29.76;102861.91;5078517;28;20028;-64
2022/12/18 01:41:18;;;;;;;9.30;7.32;;;;;;;19.71;29.56;102859.25;5074412;28;20049;-64
2022/12/18 01:43:45;;;;;;;10.27;7.43;;;;;;;19.68;29.66;102865.66;5069878;28;20036;-64
2022/12/18 01:46:11;;;;;;;10.57;6.78;;;;;;;19.64;29.68;102861.59;5076588;28;20040;-64
2022/12/18 01:48:38;;;;;;;9.82;6.90;;;;;;;19.70;29.63;102869.00;5077676;28;20155;-64
2022/12/18 01:51:04;;;;;;;9.18;6.38;;;;;;;19.76;29.48;102870.31;5094211;28;20040;-63
2022/12/18 01:53:30;;;;;;;9.20;6.32;;;;;;;19.64;29.56;102864.25;5072499;28;20045;-64
2022/12/18 01:55:58;;;;;;;10.07;6.75;;;;;;;19.64;29.72;102860.75;5081868;28;20071;-64
2022/12/18 01:58:48;;;;;;;10.35;6.53;;;;;;;19.66;29.64;102861.47;5079649;28;20197;-64
2022/12/18 02:01:14;;;;;;;10.75;7.32;;;;;;;19.57;29.63;102852.53;5079284;28;20028;-64
2022/12/18 02:03:44;;;;;;;9.68;6.78;;;;;;;19.59;29.84;102856.72;5075857;28;20738;-64
2022/12/18 02:06:28;;;;;;;9.70;6.43;;;;;;;19.56;29.71;102859.59;5082451;28;20099;-64
2022/12/18 02:09:19;;;;;;;10.82;7.00;;;;;;;19.63;29.93;102867.84;5074798;28;20052;-63
2022/12/18 02:12:20;;;;;;;9.20;6.32;;;;;;;19.66;29.56;102862.31;5082745;28;20036;-64
2022/12/18 02:15:02;;;;;;;10.43;6.95;;;;;;;19.66;29.77;102872.03;5080791;28;20429;-63
2022/12/18 02:17:38;;;;;;;9.68;6.50;;;;;;;19.65;29.68;102878.28;5076600;28;21008;-64
2022/12/18 02:20:16;;;;;;;9.13;6.65;;;;;;;19.65;29.59;102878.28;5082241;28;20043;-64
2022/12/18 02:23:06;;;;;;;10.18;6.93;;;;;;;19.80;29.53;102884.94;5078863;28;20572;-64
2022/12/18 02:25:38;;;;;;;11.02;6.72;;;;;;;20.09;29.20;102877.16;5094296;27;20050;-64
2022/12/18 02:28:08;;;;;;;8.90;6.53;;;;;;;20.22;28.99;102868.03;5075975;28;20067;-64
2022/12/18 02:30:39;;;;;;;8.68;6.38;;;;;;;20.22;29.27;102851.31;5067795;28;20115;-64
2022/12/18 02:33:07;;;;;;;9.38;6.68;;;;;;;20.16;29.06;102852.69;5078553;28;20032;-63
2022/12/18 02:35:35;;;;;;;8.75;6.30;;;;;;;20.19;29.08;102856.88;5082620;28;20577;-64
2022/12/18 02:38:03;;;;;;;8.32;5.90;;;;;;;20.12;29.22;102855.75;5075208;28;20223;-64
2022/12/18 02:40:32;;;;;;;10.20;6.60;;;;;;;20.08;29.26;102855.16;5076234;28;20115;-64
2022/12/18 02:43:08;;;;;;;7.15;5.32;;;;;;;20.06;29.34;102853.59;5095545;27;20037;-64
2022/12/18 02:45:33;;;;;;;10.15;7.07;;;;;;;20.02;29.36;102868.91;5073666;28;20035;-64
2022/12/18 02:47:59;;;;;;;9.75;6.47;;;;;;;20.01;29.47;102861.94;5089667;27;20036;-64
2022/12/18 02:50:24;;;;;;;11.10;6.93;;;;;;;19.96;29.38;102858.03;5079125;28;20474;-63
2022/12/18 02:53:19;;;;;;;9.82;6.47;;;;;;;19.90;29.48;102857.56;5055441;28;20028;-64
2022/12/18 02:56:10;;;;;;;11.38;7.05;;;;;;;19.92;29.46;102854.78;5091519;27;20050;-64
2022/12/18 02:58:50;;;;;;;9.88;7.03;;;;;;;19.85;29.50;102859.78;5074295;28;20040;-64
2022/12/18 03:01:36;;;;;;;11.45;7.25;;;;;;;19.85;29.57;102848.38;5072473;28;20471;-63
2022/12/18 03:04:10;;;;;;;8.73;7.05;;;;;;;19.88;29.47;102848.94;5064109;28;20039;-64
2022/12/18 03:06:46;;;;;;;10.70;7.05;;;;;;;19.81;29.66;102844.31;5068576;28;20077;-63
2022/12/18 03:09:28;;;;;;;12.02;7.57;;;;;;;19.81;29.64;102846.97;5058334;28;20115;-64
2022/12/18 03:14:46;;;;;;;10.13;7.65;;;;;;;19.74;29.62;102854.53;5079439;28;20043;-63
2022/12/18 03:17:17;;;;;;;9.77;6.75;;;;;;;19.75;29.69;102860.66;5076532;28;20028;-64
2022/12/18 03:19:46;;;;;;;10.98;7.82;;;;;;;19.73;29.75;102860.81;5077345;28;20039;-64
2022/12/18 03:22:13;;;;;;;10.90;7.22;;;;;;;19.71;29.64;102862.75;5079160;28;20574;-63
2022/12/18 03:24:46;;;;;;;11.88;7.68;;;;;;;19.73;29.66;102865.25;5079053;28;20056;-63
2022/12/18 03:27:17;;;;;;;10.57;7.30;;;;;;;19.70;29.58;102854.94;5093071;28;20044;-64
2022/12/18 03:30:07;;;;;;;10.73;7.15;;;;;;;19.71;29.67;102861.91;5061011;28;20032;-64
2022/12/18 03:32:42;;;;;;;10.23;7.35;;;;;;;19.68;29.49;102851.59;5094684;27;20028;-64
2022/12/18 03:35:12;;;;;;;11.07;7.85;;;;;;;19.64;29.66;102858.13;5078403;28;20040;-64
2022/12/18 03:37:38;;;;;;;11.48;7.55;;;;;;;19.59;29.74;102855.88;5071747;28;20473;-64
2022/12/18 03:40:06;;;;;;;11.98;8.50;;;;;;;19.65;29.57;102857.16;5073565;28;20104;-64
2022/12/18 03:42:49;;;;;;;11.65;8.57;;;;;;;19.64;29.60;102845.75;5077851;28;20566;-63
2022/12/18 03:45:34;;;;;;;11.40;8.20;;;;;;;19.60;29.62;102846.97;5071754;28;20028;-64
2022/12/18 03:48:05;;;;;;;11.80;8.05;;;;;;;19.55;29.67;102849.16;5090904;27;20036;-64
2022/12/18 03:51:01;;;;;;;12.88;8.40;;;;;;;19.52;29.80;102854.66;5071997;28;21081;-63
2022/12/18 03:53:46;;;;;;;11.00;7.68;;;;;;;19.57;29.68;102847.25;5070051;28;20087;-63
2022/12/18 03:56:15;;;;;;;11.55;7.85;;;;;;;19.54;29.74;102850.13;5068284;28;20089;-64
2022/12/18 03:58:44;;;;;;;12.38;8.52;;;;;;;19.50;29.58;102852.16;5076576;28;20515;-64
2022/12/18 04:01:24;;;;;;;13.85;8.80;;;;;;;19.55;29.49;102846.50;5070736;28;20546;-64
2022/12/18 04:03:51;;;;;;;12.05;7.80;;;;;;;19.51;29.66;102839.78;5095261;27;20032;-64
2022/12/18 04:06:19;;;;;;;11.50;8.20;;;;;;;19.49;29.71;102834.63;5074240;28;20063;-64
2022/12/18 04:08:46;;;;;;;11.85;8.07;;;;;;;19.44;29.82;102839.47;5074249;28;20433;-63
2022/12/18 04:11:15;;;;;;;12.30;8.60;;;;;;;19.44;29.63;102838.63;5078116;28;20031;-63
2022/12/18 04:13:43;;;;;;;12.38;7.85;;;;;;;19.46;29.72;102832.25;5076562;28;20043;-64
2022/12/18 04:16:15;;;;;;;13.43;8.27;;;;;;;19.47;29.58;102828.63;5073871;28;20206;-64
2022/12/18 04:18:42;;;;;;;12.50;8.13;;;;;;;19.41;29.73;102830.97;5069467;28;20371;-64
2022/12/18 04:21:10;;;;;;;11.75;7.95;;;;;;;19.52;29.53;102834.34;5080785;28;20405;-64
2022/12/18 04:23:36;;;;;;;12.65;7.93;;;;;;;19.53;29.48;102828.09;5073286;28;20123;-64
2022/12/18 04:26:02;;;;;;;12.73;8.13;;;;;;;19.72;29.44;102823.94;5074908;28;20109;-63
2022/12/18 04:28:41;;;;;;;13.48;8.70;;;;;;;19.99;29.06;102829.50;5080666;28;20108;-64
2022/12/18 04:31:07;;;;;;;13.40;7.72;;;;;;;20.00;29.04;102833.84;5069452;28;20035;-63
2022/12/18 04:33:33;;;;;;;11.80;8.43;;;;;;;20.00;28.99;102851.50;5069454;28;20036;-64
2022/12/18 04:35:59;;;;;;;12.15;8.52;;;;;;;19.97;29.01;102846.47;5074422;28;20223;-64
2022/12/18 04:38:25;;;;;;;13.52;8.55;;;;;;;19.93;28.99;102845.91;5076814;28;20044;-64
2022/12/18 04:40:58;;;;;;;12.65;8.52;;;;;;;19.90;29.18;102854.09;5072932;28;20048;-64
2022/12/18 04:43:26;;;;;;;12.18;8.38;;;;;;;19.92;29.15;102857.44;5070640;28;20035;-63
2022/12/18 04:45:51;;;;;;;11.75;8.15;;;;;;;19.87;29.24;102851.72;5073373;28;21078;-64
2022/12/18 04:48:17;;;;;;;11.68;7.60;;;;;;;19.84;29.25;102844.03;5074485;28;20044;-64
2022/12/18 04:50:43;;;;;;;11.75;7.65;;;;;;;19.85;29.09;102848.38;5074292;28;20410;-64
2022/12/18 04:53:08;;;;;;;11.43;8.10;;;;;;;19.75;29.39;102844.81;5076414;28;20036;-63
2022/12/18 04:55:34;;;;;;;13.07;8.82;;;;;;;19.73;29.44;102842.31;5081087;28;20146;-64
2022/12/18 04:58:00;;;;;;;12.50;7.50;;;;;;;19.68;29.49;102836.56;5080382;28;20044;-64
2022/12/18 05:00:26;;;;;;;13.35;8.52;;;;;;;19.65;29.49;102843.94;5074694;28;20032;-63
2022/12/18 05:02:51;;;;;;;11.73;8.18;;;;;;;19.65;29.45;102842.13;5081376;28;20047;-64
2022/12/18 05:05:17;;;;;;;11.38;7.55;;;;;;;19.63;29.52;102854.63;5076891;28;20047;-64
2022/12/18 05:07:42;;;;;;;11.63;7.53;;;;;;;19.64;29.55;102851.03;5080816;28;20031;-64
2022/12/18 05:10:08;;;;;;;12.43;7.88;;;;;;;19.63;29.48;102851.16;5070761;28;20052;-63
2022/12/18 05:12:57;;;;;;;12.13;8.75;;;;;;;19.57;29.63;102855.16;5076319;28;20478;-64
2022/12/18 05:15:19;;;;;;;11.18;8.05;;;;;;;19.53;29.62;102861.63;5076148;28;20074;-64
2022/12/18 05:17:45;;;;;;;12.52;8.50;;;;;;;19.52;29.63;102858.13;5078039;28;20044;-64
2022/12/18 05:20:10;;;;;;;12.05;8.13;;;;;;;19.51;29.62;102859.09;5074946;28;20048;-64
2022/12/18 05:22:36;;;;;;;10.98;8.23;;;;;;;19.47;29.68;102867.44;5076026;28;20071;-64
2022/12/18 05:25:01;;;;;;;12.23;8.82;;;;;;;19.49;29.56;102873.41;5074607;28;20047;-64
2022/12/18 05:27:27;;;;;;;12.05;7.72;;;;;;;19.45;29.53;102867.56;5077566;28;21242;-64
2022/12/18 05:29:52;;;;;;;12.65;8.20;;;;;;;19.46;29.57;102869.22;5071728;28;20044;-65
2022/12/18 05:32:18;;;;;;;13.52;7.93;;;;;;;19.45;29.61;102874.66;5078231;28;20112;-64
2022/12/18 05:34:43;;;;;;;12.32;8.48;;;;;;;19.41;29.51;102874.06;5079350;28;20042;-64
2022/12/18 05:37:09;;;;;;;13.73;7.97;;;;;;;19.40;29.62;102859.19;5076970;28;20048;-65
2022/12/18 05:39:34;;;;;;;12.73;7.70;;;;;;;19.35;29.68;102858.72;5075095;28;20040;-64
2022/12/18 05:42:00;;;;;;;12.18;8.07;;;;;;;19.39;29.55;102856.66;5075698;28;20064;-65
2022/12/18 05:44:25;;;;;;;13.20;9.02;;;;;;;19.38;29.53;102858.44;5074952;28;20051;-64
2022/12/18 05:46:51;;;;;;;11.23;7.43;;;;;;;19.40;29.68;102866.28;5073526;28;20036;-65
2022/12/18 05:49:16;;;;;;;11.90;8.25;;;;;;;19.35;29.69;102861.34;5076412;28;20044;-64
2022/12/18 05:51:42;;;;;;;11.90;7.88;;;;;;;19.27;29.80;102862.00;5078673;28;20044;-65
2022/12/18 05:54:07;;;;;;;12.45;8.30;;;;;;;19.35;29.65;102852.59;5072813;28;20639;-64
2022/12/18 05:56:33;;;;;;;10.70;7.68;;;;;;;19.29;29.81;102862.72;5074669;28;20511;-64
2022/12/18 05:58:58;;;;;;;10.60;7.20;;;;;;;19.35;29.68;102865.78;5080123;28;20020;-64
2022/12/18 06:01:26;;;;;;;11.30;6.78;;;;;;;19.35;29.94;102871.09;5076768;28;20501;-64
2022/12/18 06:03:51;;;;;;;11.68;7.07;;;;;;;19.32;29.70;102877.47;5080495;28;20039;-64
2022/12/18 06:06:20;;;;;;;11.15;7.75;;;;;;;19.23;29.70;102876.44;5077320;28;20152;-64
2022/12/18 06:08:46;;;;;;;12.13;7.55;;;;;;;19.32;29.55;102890.66;5075523;28;20028;-64
2022/12/18 06:11:11;;;;;;;9.60;7.30;;;;;;;19.30;29.66;102892.59;5078787;28;20062;-63
2022/12/18 06:13:38;;;;;;;10.18;7.07;;;;;;;19.37;29.53;102896.41;5079514;28;20028;-65
2022/12/18 06:16:07;;;;;;;11.05;7.70;;;;;;;19.55;29.40;102902.84;5078125;28;20052;-64
2022/12/18 06:18:34;;;;;;;10.73;7.43;;;;;;;19.77;29.08;102903.72;5081975;28;20047;-64
2022/12/18 06:21:00;;;;;;;10.40;6.95;;;;;;;19.96;28.92;102916.22;5080459;28;20212;-64
2022/12/18 06:23:26;;;;;;;9.68;6.57;;;;;;;20.47;28.32;102916.22;5080004;28;20099;-64
2022/12/18 06:25:52;;;;;;;10.18;6.85;;;;;;;21.18;27.52;102914.25;5083141;28;20130;-64
2022/12/18 06:28:18;;;;;;;9.75;6.47;;;;;;;21.76;26.98;102910.81;5075037;28;20082;-64
2022/12/18 06:30:45;;;;;;;8.65;6.10;;;;;;;22.15;26.57;102903.63;5078624;28;20840;-63
2022/12/18 06:33:10;;;;;;;8.38;5.95;;;;;;;22.17;26.32;102905.13;5081908;28;20036;-64
2022/12/18 06:35:36;;;;;;;10.27;6.13;;;;;;;22.06;26.41;102900.00;5081198;28;20050;-64
2022/12/18 06:38:02;;;;;;;10.05;6.93;;;;;;;21.94;26.82;102895.81;5082580;28;20493;-64
2022/12/18 06:40:29;;;;;;;8.98;6.47;;;;;;;21.74;26.86;102900.34;5074552;28;20453;-64
2022/12/18 06:42:54;;;;;;;9.80;6.43;;;;;;;21.59;27.19;102891.16;5077241;28;21071;-64
2022/12/18 06:45:20;;;;;;;8.05;5.65;;;;;;;21.34;27.81;102885.44;5083685;28;20040;-63
2022/12/18 06:47:45;;;;;;;11.13;6.63;;;;;;;21.19;27.87;102880.69;5079775;28;20032;-64
2022/12/18 06:50:12;;;;;;;8.73;5.88;;;;;;;21.02;27.94;102876.91;5082949;28;20047;-64
2022/12/18 06:52:39;;;;;;;9.23;5.90;;;;;;;20.93;28.26;102875.91;5074463;28;20170;-65
2022/12/18 06:55:05;;;;;;;10.20;5.72;;;;;;;20.89;28.22;102882.47;5080518;28;20678;-64
2022/12/18 06:57:30;;;;;;;9.10;6.15;;;;;;;20.80;28.50;102878.81;5072450;28;20051;-64
2022/12/18 06:59:56;;;;;;;10.32;6.68;;;;;;;21.00;28.32;102870.88;5075629;28;20301;-65
2022/12/18 07:02:21;;;;;;;7.93;5.57;;;;;;;21.74;27.31;102873.81;5074135;28;20040;-64
2022/12/18 07:04:47;;;;;;;8.55;5.95;;;;;;;22.39;26.27;102877.38;5075530;28;20036;-65
2022/12/18 07:07:15;;;;;;;9.40;6.20;;;;;;;22.87;25.79;102863.00;5076218;28;20153;-65
2022/12/18 07:09:41;;;;;;;7.40;5.60;;;;;;;22.86;25.83;102862.19;5077401;28;20885;-65
2022/12/18 07:12:07;;;;;;;8.65;6.07;;;;;;;22.69;26.16;102862.13;5079630;28;20907;-63
2022/12/18 07:14:33;;;;;;;10.23;6.68;;;;;;;22.50;26.20;102855.13;5077904;28;20043;-65
2022/12/18 07:16:59;;;;;;;9.15;6.30;;;;;;;22.39;26.36;102853.47;5076555;28;20028;-64
2022/12/18 07:19:24;;;;;;;7.63;5.80;;;;;;;22.23;26.48;102848.81;5079170;28;20042;-65
2022/12/18 07:21:50;;;;;;;7.40;5.38;;;;;;;22.08;26.79;102842.31;5080039;28;20040;-64
2022/12/18 07:24:16;;;;;;;8.13;5.57;;;;;;;21.92;27.04;102844.75;5079692;28;20035;-65
2022/12/18 07:26:41;;;;;;;9.05;5.70;;;;;;;21.67;27.25;102843.53;5075103;28;20056;-64
2022/12/18 07:29:07;;;;;;;7.80;5.80;;;;;;;21.51;27.84;102835.34;5074872;28;20093;-65
2022/12/18 07:31:33;;;;;;;7.20;5.10;;;;;;;21.42;27.99;102832.56;5076639;28;20485;-64
2022/12/18 07:33:58;;;;;;;9.35;6.65;;;;;;;21.33;27.90;102830.75;5079522;28;20032;-65
2022/12/18 07:36:24;;;;;;;8.18;6.30;;;;;;;21.26;28.23;102834.97;5075471;28;20052;-65
2022/12/18 07:38:52;;;;;;;9.57;6.25;;;;;;;21.17;28.33;102838.41;5078279;28;20028;-64
2022/12/18 07:41:18;;;;;;;8.23;6.20;;;;;;;21.13;27.99;102835.22;5077209;28;20362;-65
2022/12/18 07:43:44;;;;;;;9.30;5.90;;;;;;;21.07;28.20;102830.47;5078011;28;20041;-65
2022/12/18 07:46:13;;;;;;;8.60;5.78;;;;;;;21.04;28.25;102829.94;5082366;28;20064;-65
2022/12/18 07:48:42;;;;;;;8.30;5.80;;;;;;;20.98;28.27;102838.41;5079440;28;20040;-64
2022/12/18 07:51:09;;;;;;;9.05;6.00;;;;;;;20.90;28.38;102840.94;5075758;28;20055;-65
2022/12/18 07:53:36;;;;;;;7.28;5.25;;;;;;;20.74;28.59;102837.00;5079079;28;20465;-64
2022/12/18 07:56:05;;;;;;;9.48;5.93;;;;;;;20.80;28.75;102852.34;5075403;28;20052;-65
2022/12/18 07:58:31;;;;;;;6.80;5.22;;;;;;;20.95;28.43;102849.28;5076043;28;20035;-65
2022/12/18 08:01:10;;;;;;;7.10;5.80;;;;;;;21.17;28.12;102850.81;5076253;28;20039;-65
2022/12/18 08:03:37;;;;;;;8.05;6.30;;;;;;;21.56;27.66;102862.28;5073055;28;20454;-65
2022/12/18 08:06:06;;;;;;;8.25;5.90;;;;;;;21.87;26.99;102853.09;5080805;28;20664;-64
2022/12/18 08:08:32;;;;;;;7.22;5.38;;;;;;;21.92;27.21;102856.19;5077870;28;20032;-65
2022/12/18 08:10:58;;;;;;;6.88;5.55;;;;;;;21.81;27.07;102845.75;5078195;28;20139;-64
2022/12/18 08:13:25;;;;;;;7.15;5.68;;;;;;;21.66;27.61;102844.53;5077205;28;20767;-64
2022/12/18 08:16:02;;;;;;;7.57;5.45;;;;;;;21.52;27.65;102840.50;5079170;28;20036;-64
2022/12/18 08:18:28;;;;;;;6.90;5.72;;;;;;;21.36;27.91;102843.75;5079554;28;20611;-64
2022/12/18 08:20:55;;;;;;;7.07;5.55;;;;;;;21.28;28.09;102832.16;5081960;28;20039;-64
2022/12/18 08:23:21;;;;;;;7.97;5.75;;;;;;;21.26;28.07;102826.19;5073101;28;20043;-64
2022/12/18 08:25:46;;;;;;;8.55;5.93;;;;;;;21.21;28.10;102826.56;5073048;28;20056;-64
2022/12/18 08:28:12;;;;;;;7.55;5.60;;;;;;;21.21;28.01;102828.38;5075979;28;20040;-64
2022/12/18 08:30:38;;;;;;;7.70;4.93;;;;;;;21.12;28.22;102830.06;5075139;28;20028;-64
2022/12/18 08:33:03;;;;;;;7.25;5.30;;;;;;;21.03;28.16;102822.97;5075985;28;20094;-64
2022/12/18 08:35:29;;;;;;;7.03;5.55;;;;;;;20.86;28.27;102813.06;5076670;28;20039;-64
2022/12/18 08:37:54;;;;;;;6.70;5.22;;;;;;;20.90;28.23;102831.16;5075568;28;20048;-64
2022/12/18 08:40:20;;;;;;;7.70;5.60;;;;;;;20.82;28.63;102831.00;5074897;28;20044;-63
2022/12/18 08:45:33;;;;;;;7.43;5.85;;;;;;;20.72;28.57;102836.31;5017228;28;20044;-66
2022/12/18 08:47:59;;;;;;;8.63;5.47;;;;;;;20.91;28.32;102832.84;5081120;28;20044;-63
2022/12/18 08:50:24;;;;;;;8.65;5.43;;;;;;;21.19;27.84;102833.84;5076060;28;20431;-63
2022/12/18 08:52:50;;;;;;;7.13;4.88;;;;;;;21.67;27.08;102833.75;5070914;28;20044;-65
2022/12/18 08:55:15;;;;;;;8.73;5.70;;;;;;;21.64;27.08;102842.00;5072548;28;20036;-64
2022/12/18 08:57:41;;;;;;;7.97;5.45;;;;;;;21.57;27.47;102851.53;5070986;28;20557;-64
2022/12/18 09:00:07;;;;;;;8.13;5.60;;;;;;;21.51;27.30;102873.28;5065751;28;20448;-65
2022/12/18 09:02:33;;;;;;;7.32;6.03;;;;;;;21.43;27.40;102867.88;5063847;28;20032;-65
2022/12/18 09:04:58;;;;;;;8.30;5.40;;;;;;;21.40;27.64;102863.69;5070936;28;20048;-66
2022/12/18 09:07:24;;;;;;;7.63;5.32;;;;;;;21.30;27.76;102865.50;5073489;28;20081;-63
2022/12/18 09:09:49;;;;;;;8.13;5.63;;;;;;;21.26;27.81;102866.75;5071926;28;20068;-65
2022/12/18 09:12:15;;;;;;;8.32;6.25;;;;;;;21.24;27.86;102866.06;5080094;28;20055;-65
2022/12/18 09:14:40;;;;;;;7.53;5.97;;;;;;;21.20;27.94;102861.16;5084135;28;20196;-65
2022/12/18 09:17:06;;;;;;;7.70;5.72;;;;;;;21.14;28.03;102854.59;5067534;28;20501;-66
2022/12/18 09:19:31;;;;;;;6.82;5.72;;;;;;;21.16;27.97;102855.28;5065784;28;20043;-64
2022/12/18 09:21:57;;;;;;;7.65;5.15;;;;;;;21.24;27.87;102855.47;5080929;28;20047;-64
2022/12/18 09:24:22;;;;;;;7.70;5.28;;;;;;;21.28;27.62;102859.50;5078169;28;20454;-64
2022/12/18 09:26:48;;;;;;;10.07;5.97;;;;;;;21.31;27.48;102861.88;5077968;28;20051;-65
2022/12/18 09:29:15;;;;;;;5.40;4.65;;;;;;;21.33;27.49;102853.78;5080281;28;20085;-64
2022/12/18 09:31:40;;;;;;;7.30;5.30;;;;;;;21.41;27.40;102851.28;5080655;28;20039;-64
2022/12/18 09:34:06;;;;;;;6.45;4.57;;;;;;;21.42;27.31;102861.72;5066903;28;20054;-64
2022/12/18 09:36:32;;;;;;;6.90;5.25;;;;;;;21.41;27.06;102859.22;5064393;28;20035;-64
2022/12/18 09:38:57;;;;;;;7.10;5.05;;;;;;;21.38;27.08;102859.50;5075325;28;20650;-64
2022/12/18 09:41:44;;;;;;;7.75;5.50;;;;;;;21.32;27.13;102849.44;5078002;28;20044;-62
2022/12/18 09:44:28;;;;;;;6.70;5.43;;;;;;;21.28;27.05;102835.66;5077958;28;20051;-63
2022/12/18 09:47:03;;;;;;;7.47;5.28;;;;;;;21.24;27.37;102821.03;5078448;28;20024;-64
2022/12/18 09:49:32;;;;;;;7.57;5.20;;;;;;;21.24;27.55;102823.66;5077461;28;20128;-66
2022/12/18 09:52:05;;;;;;;7.82;5.18;;;;;;;21.55;26.99;102821.69;5047643;28;20036;-66
2022/12/18 09:54:36;;;;;;;7.35;5.47;;;;;;;21.78;26.75;102823.97;5074807;28;20037;-66
2022/12/18 09:57:02;;;;;;;6.50;4.88;;;;;;;21.79;27.20;102825.66;5072717;28;20707;-66
2022/12/18 09:59:35;;;;;;;5.90;4.68;;;;;;;21.67;27.10;102817.84;5076700;28;20032;-66
2022/12/18 10:02:14;;;;;;;6.28;5.13;;;;;;;21.69;27.35;102820.38;5078346;28;20036;-66
2022/12/18 10:04:40;;;;;;;5.07;4.43;;;;;;;21.58;27.75;102829.34;5073178;28;20127;-64
2022/12/18 10:07:24;;;;;;;6.40;4.95;;;;;;;21.60;27.72;102829.19;5051827;28;20043;-70
2022/12/18 10:09:49;;;;;;;6.13;4.70;;;;;;;21.50;27.84;102831.00;5075632;28;20039;-69
2022/12/18 10:12:32;;;;;;;5.97;4.78;;;;;;;21.46;28.13;102827.81;5082752;28;20163;-68
2022/12/18 10:15:18;;;;;;;5.85;4.65;;;;;;;21.35;27.88;102826.16;5078727;28;20070;-65
2022/12/18 10:18:14;;;;;;;6.30;4.65;;;;;;;21.25;28.14;102813.91;5075909;28;20046;-66
2022/12/18 10:20:54;;;;;;;5.97;4.55;;;;;;;21.15;27.97;102794.50;5075474;28;20463;-66
2022/12/18 10:23:34;;;;;;;;;;;;;;;21.16;27.73;102781.09;5056458;28;20028;-67
2022/12/18 10:26:04;;;;;;;6.47;5.00;;;;;;;21.47;27.70;102792.38;5075544;28;19920;-67
2022/12/18 10:28:31;;;;;;;5.97;4.75;;;;;;;21.93;27.10;102788.88;5085906;28;20480;-68
2022/12/18 10:30:58;;;;;;;7.88;4.57;;;;;;;21.89;27.24;102768.09;5078956;28;20414;-69
2022/12/18 10:33:31;;;;;;;5.70;4.63;;;;;;;22.32;26.78;102788.72;5080080;28;20134;-67
2022/12/18 10:35:57;;;;;;;5.72;4.32;;;;;;;22.73;26.27;102782.00;5081819;28;20063;-67
2022/12/18 10:38:31;;;;;;;5.75;4.07;;;;;;;23.07;25.85;102773.34;5082817;28;20082;-67
2022/12/18 10:40:58;;;;;;;5.00;3.58;;;;;;;23.26;25.61;102773.16;5053977;28;20042;-68
2022/12/18 10:43:38;;;;;;;4.75;3.92;;;;;;;23.25;25.40;102781.28;5079391;28;20039;-69
2022/12/18 10:46:07;;;;;;;;;;;;;;;23.07;25.79;102771.53;5058607;28;20047;-74
2022/12/18 10:48:39;;;;;;;5.47;4.30;;;;;;;22.94;26.17;102764.94;5035674;28;19931;-69
2022/12/18 10:51:06;;;;;;;5.40;4.10;;;;;;;22.66;26.71;102751.72;5084155;28;20112;-71
2022/12/18 10:53:34;;;;;;;4.97;4.20;;;;;;;22.66;26.59;102737.63;5077630;28;20040;-68
2022/12/18 10:56:00;;;;;;;4.45;3.65;;;;;;;22.54;26.77;102740.50;5076883;28;20054;-69
2022/12/18 10:58:28;;;;;;;4.30;3.28;;;;;;;22.41;26.74;102737.38;5078986;28;20040;-68
2022/12/18 11:01:15;;;;;;;4.72;3.88;;;;;;;22.27;27.40;102738.75;5082541;28;20043;-72
2022/12/18 11:03:43;;;;;;;5.28;3.80;;;;;;;22.29;27.28;102731.47;5059906;28;20183;-76
2022/12/18 11:06:10;;;;;;;4.55;3.63;;;;;;;22.20;27.11;102740.31;5078719;28;20047;-71
2022/12/18 11:08:36;;;;;;;5.28;3.90;;;;;;;22.12;27.08;102734.94;5085315;28;20114;-69
2022/12/18 11:11:04;;;;;;;8.75;4.13;;;;;;;22.12;27.46;102748.19;5079288;28;20032;-72
2022/12/18 11:13:31;;;;;;;5.45;3.85;;;;;;;21.99;27.57;102732.59;5077479;28;20039;-72
2022/12/18 11:15:57;;;;;;;6.03;3.83;;;;;;;21.70;27.63;102735.38;5079074;28;20036;-68
2022/12/18 11:18:28;;;;;;;5.13;3.58;;;;;;;21.91;27.50;102721.06;5067197;28;20040;-70
2022/12/18 11:21:03;;;;;;;4.32;3.50;;;;;;;22.10;26.72;102713.03;5075059;28;20028;-69
2022/12/18 11:23:28;;;;;;;5.57;3.67;;;;;;;22.30;26.68;102713.72;5081596;28;20059;-69
2022/12/18 11:26:01;;;;;;;4.88;3.60;;;;;;;22.56;25.79;102717.28;5081054;28;20047;-69
2022/12/18 11:28:42;;;;;;;4.60;3.50;;;;;;;22.74;25.63;102717.25;5082205;28;20868;-72
2022/12/18 11:31:31;;;;;;;5.00;4.00;;;;;;;22.71;25.73;102712.25;5080369;28;20904;-72
2022/12/18 11:34:11;;;;;;;4.28;3.28;;;;;;;22.73;25.19;102709.44;5077935;28;20044;-71
2022/12/18 11:36:46;;;;;;;4.45;3.47;;;;;;;22.54;25.26;102707.81;5052173;28;20220;-71
2022/12/18 11:39:31;;;;;;;4.05;3.25;;;;;;;22.33;25.86;102712.59;5080771;28;20543;-70